createdAt,value
2018-11-20T00:00:00.392Z,0.23
2018-11-20T00:05:55.410Z,0.27
2018-11-20T00:11:50.436Z,1.09
2018-11-20T00:17:45.457Z,0.2
2018-11-20T00:23:40.434Z,0.19
2018-11-20T00:29:35.438Z,0.29
2018-11-20T00:35:30.401Z,0.29
2018-11-20T00:41:25.406Z,0.22
2018-11-20T00:47:20.401Z,0.67
2018-11-20T00:53:15.441Z,0.2
2018-11-20T00:59:10.451Z,0.23
2018-11-20T01:05:05.432Z,0.34
2018-11-20T01:11:00.417Z,0.31
2018-11-20T01:16:55.414Z,0.32
2018-11-20T01:22:50.426Z,0.27
2018-11-20T01:28:45.427Z,0.3
2018-11-20T01:34:40.479Z,0.23
2018-11-20T01:40:35.416Z,0.28
2018-11-20T01:46:30.421Z,0.27
2018-11-20T01:52:25.456Z,0.21
2018-11-20T01:58:20.513Z,0.22
2018-11-20T02:04:15.578Z,0.27
2018-11-20T02:10:10.452Z,0.2
2018-11-20T02:16:05.425Z,0.27
2018-11-20T02:22:00.443Z,0.19
2018-11-20T02:27:55.482Z,0.31
2018-11-20T02:33:50.442Z,0.29
2018-11-20T02:39:45.435Z,0.33
2018-11-20T02:45:40.494Z,0.19
2018-11-20T02:51:35.611Z,0.27
2018-11-20T02:57:30.418Z,0.27
2018-11-20T03:03:25.441Z,0.21
2018-11-20T03:09:20.449Z,0.23
2018-11-20T03:15:15.416Z,0.2
2018-11-20T03:21:10.450Z,0.27
2018-11-20T03:27:05.661Z,0.35
2018-11-20T03:33:00.437Z,0.41
2018-11-20T03:38:55.428Z,0.21
2018-11-20T03:44:50.460Z,0.24
2018-11-20T03:50:45.443Z,0.19
2018-11-20T03:56:40.462Z,0.19
2018-11-20T04:02:35.441Z,0.23
2018-11-20T04:08:30.450Z,1.4
2018-11-20T04:14:25.460Z,0.25
2018-11-20T04:20:20.500Z,1.3
2018-11-20T04:26:15.450Z,1.27
2018-11-20T04:32:10.477Z,1.34
2018-11-20T04:38:05.481Z,0.18
2018-11-20T04:44:00.459Z,0.27
2018-11-20T04:49:55.608Z,0.3
2018-11-20T04:55:50.489Z,0.42
2018-11-20T05:01:45.475Z,0.32
2018-11-20T05:07:40.450Z,0.19
2018-11-20T05:13:35.463Z,0.55
2018-11-20T05:19:30.467Z,1.39
2018-11-20T05:25:25.477Z,0.32
2018-11-20T05:31:20.459Z,0.83
2018-11-20T05:37:15.447Z,2
2018-11-20T05:43:10.463Z,2.98
2018-11-20T05:49:05.478Z,1.57
2018-11-20T05:55:00.485Z,3.04
2018-11-20T06:00:55.482Z,0.97
2018-11-20T06:06:50.504Z,1.49
2018-11-20T06:12:45.592Z,4.57
2018-11-20T06:18:40.495Z,4.58
2018-11-20T06:24:35.476Z,7.06
2018-11-20T06:30:30.475Z,1.63
2018-11-20T06:36:25.476Z,13.62
2018-11-20T06:42:20.533Z,4.29
2018-11-20T06:48:15.494Z,6.17
2018-11-20T06:54:10.463Z,2.67
2018-11-20T07:00:05.500Z,9.03
2018-11-20T07:06:00.478Z,11.59
2018-11-20T07:11:55.564Z,7.38
2018-11-20T07:17:50.469Z,5.93
2018-11-20T07:23:45.507Z,7.36
2018-11-20T07:29:40.567Z,9.69
2018-11-20T07:35:35.477Z,12.4
2018-11-20T07:41:30.630Z,7.48
2018-11-20T07:47:25.498Z,13.94
2018-11-20T07:53:20.530Z,26.13
2018-11-20T07:59:15.488Z,7.44
2018-11-20T08:05:10.492Z,14.16
2018-11-20T08:11:05.507Z,7.97
2018-11-20T08:17:00.494Z,6.67
2018-11-20T08:22:55.516Z,5.5
2018-11-20T08:28:50.544Z,6.06
2018-11-20T08:34:45.511Z,2.9
2018-11-20T08:40:40.537Z,5.08
2018-11-20T08:46:35.557Z,10.39
2018-11-20T08:52:30.494Z,9.1
2018-11-20T08:58:25.501Z,7.39
2018-11-20T09:04:20.514Z,5.81
2018-11-20T09:10:15.550Z,6.25
2018-11-20T09:16:10.579Z,6.38
2018-11-20T09:22:05.630Z,5.2
2018-11-20T09:28:00.559Z,3.05
2018-11-20T09:33:55.537Z,4.1
2018-11-20T09:39:50.495Z,4.98
2018-11-20T09:45:45.514Z,7.55
2018-11-20T09:51:40.519Z,7.83
2018-11-20T09:57:35.557Z,10.42
2018-11-20T10:03:30.580Z,6.44
2018-11-20T10:09:25.512Z,15.41
2018-11-20T10:15:20.691Z,10.82
2018-11-20T10:21:15.591Z,13.8
2018-11-20T10:27:10.527Z,11.47
2018-11-20T10:33:05.553Z,10.2
2018-11-20T10:39:00.525Z,11.13
2018-11-20T10:44:55.530Z,14.1
2018-11-20T10:50:50.564Z,10.11
2018-11-20T10:56:45.545Z,9.95
2018-11-20T11:02:42.162Z,13.6
2018-11-20T11:08:35.542Z,21.34
2018-11-20T11:14:30.617Z,12.4
2018-11-20T11:20:25.700Z,13.51
2018-11-20T11:26:20.538Z,10.47
2018-11-20T11:32:15.601Z,18.8
2018-11-20T11:38:10.621Z,8.33
2018-11-20T11:44:05.545Z,7.61
2018-11-20T11:50:00.581Z,5.7
2018-11-20T11:55:55.542Z,3.48
2018-11-20T12:07:47.173Z,7.88
2018-11-20T12:31:25.561Z,1.73
2018-11-20T14:00:10.590Z,9.15
2018-11-20T14:06:05.602Z,9.55
2018-11-20T15:58:30.604Z,2.46
2018-11-20T16:04:25.604Z,2.73
2018-11-20T16:45:50.613Z,4.05
2018-11-20T17:27:16.252Z,6.97
2018-11-20T17:39:05.631Z,9.03
2018-11-20T18:50:05.621Z,5.17
2018-11-20T19:37:25.672Z,7.23
2018-11-20T20:01:05.665Z,10.63
2018-11-20T20:48:25.688Z,14.12
2018-11-20T21:12:05.651Z,13.49
2018-11-20T21:35:46.862Z,10.76
2018-11-20T22:23:05.681Z,11.11
